sensor_id;sensor_type;location;lat;lon;timestamp;P1;durP1;ratioP1;P2;durP2;ratioP2
9860;SDS011;4969;52.304;4.968;2022-11-20T00:00:17;10.17;;;9.27;;
9860;SDS011;4969;52.304;4.968;2022-11-20T00:02:43;10.13;;;9.10;;
9860;SDS011;4969;52.304;4.968;2022-11-20T00:05:10;10.73;;;9.63;;
9860;SDS011;4969;52.304;4.968;2022-11-20T00:07:38;9.77;;;8.97;;
9860;SDS011;4969;52.304;4.968;2022-11-20T00:10:05;11.53;;;10.50;;
9860;SDS011;4969;52.304;4.968;2022-11-20T00:12:31;11.87;;;10.77;;
9860;SDS011;4969;52.304;4.968;2022-11-20T00:14:58;10.43;;;9.43;;
9860;SDS011;4969;52.304;4.968;2022-11-20T00:17:25;12.73;;;11.43;;
9860;SDS011;4969;52.304;4.968;2022-11-20T00:19:51;10.70;;;9.70;;
9860;SDS011;4969;52.304;4.968;2022-11-20T00:22:18;9.83;;;9.03;;
9860;SDS011;4969;52.304;4.968;2022-11-20T00:24:46;10.07;;;9.03;;
9860;SDS011;4969;52.304;4.968;2022-11-20T00:27:12;12.30;;;11.10;;
9860;SDS011;4969;52.304;4.968;2022-11-20T00:29:39;12.20;;;10.83;;
9860;SDS011;4969;52.304;4.968;2022-11-20T00:32:05;11.63;;;10.53;;
9860;SDS011;4969;52.304;4.968;2022-11-20T00:34:32;13.27;;;9.97;;
9860;SDS011;4969;52.304;4.968;2022-11-20T00:36:59;11.00;;;10.00;;
9860;SDS011;4969;52.304;4.968;2022-11-20T00:39:25;15.20;;;11.63;;
9860;SDS011;4969;52.304;4.968;2022-11-20T00:41:53;10.47;;;9.50;;
9860;SDS011;4969;52.304;4.968;2022-11-20T00:44:20;11.60;;;9.87;;
9860;SDS011;4969;52.304;4.968;2022-11-20T00:46:46;16.97;;;11.73;;
9860;SDS011;4969;52.304;4.968;2022-11-20T00:49:13;10.83;;;9.50;;
9860;SDS011;4969;52.304;4.968;2022-11-20T00:51:39;10.13;;;9.13;;
9860;SDS011;4969;52.304;4.968;2022-11-20T00:54:06;10.57;;;9.50;;
9860;SDS011;4969;52.304;4.968;2022-11-20T00:56:33;12.33;;;11.13;;
9860;SDS011;4969;52.304;4.968;2022-11-20T00:59:01;11.60;;;10.43;;
9860;SDS011;4969;52.304;4.968;2022-11-20T01:01:27;13.27;;;11.93;;
9860;SDS011;4969;52.304;4.968;2022-11-20T01:03:55;10.60;;;9.57;;
9860;SDS011;4969;52.304;4.968;2022-11-20T01:06:23;11.20;;;8.77;;
9860;SDS011;4969;52.304;4.968;2022-11-20T01:08:52;11.03;;;9.67;;
9860;SDS011;4969;52.304;4.968;2022-11-20T01:11:20;10.60;;;9.50;;
9860;SDS011;4969;52.304;4.968;2022-11-20T01:13:49;15.20;;;13.43;;
9860;SDS011;4969;52.304;4.968;2022-11-20T01:16:19;16.33;;;14.53;;
9860;SDS011;4969;52.304;4.968;2022-11-20T01:18:48;13.87;;;11.60;;
9860;SDS011;4969;52.304;4.968;2022-11-20T01:21:16;13.07;;;11.77;;
9860;SDS011;4969;52.304;4.968;2022-11-20T01:23:44;10.93;;;9.80;;
9860;SDS011;4969;52.304;4.968;2022-11-20T01:26:11;13.63;;;10.23;;
9860;SDS011;4969;52.304;4.968;2022-11-20T01:28:40;12.93;;;11.53;;
9860;SDS011;4969;52.304;4.968;2022-11-20T01:31:11;19.90;;;11.17;;
9860;SDS011;4969;52.304;4.968;2022-11-20T01:33:41;11.40;;;9.47;;
9860;SDS011;4969;52.304;4.968;2022-11-20T01:36:09;11.80;;;10.53;;
9860;SDS011;4969;52.304;4.968;2022-11-20T01:38:36;15.13;;;10.90;;
9860;SDS011;4969;52.304;4.968;2022-11-20T01:41:03;14.53;;;13.00;;
9860;SDS011;4969;52.304;4.968;2022-11-20T01:43:30;17.17;;;9.00;;
9860;SDS011;4969;52.304;4.968;2022-11-20T01:45:57;12.10;;;10.10;;
9860;SDS011;4969;52.304;4.968;2022-11-20T01:48:27;12.83;;;11.53;;
9860;SDS011;4969;52.304;4.968;2022-11-20T01:50:59;14.00;;;11.63;;
9860;SDS011;4969;52.304;4.968;2022-11-20T01:53:28;10.93;;;9.83;;
9860;SDS011;4969;52.304;4.968;2022-11-20T01:55:58;11.63;;;9.90;;
9860;SDS011;4969;52.304;4.968;2022-11-20T01:58:28;15.13;;;12.97;;
9860;SDS011;4969;52.304;4.968;2022-11-20T02:00:59;13.37;;;10.20;;
9860;SDS011;4969;52.304;4.968;2022-11-20T02:03:25;12.57;;;10.67;;
9860;SDS011;4969;52.304;4.968;2022-11-20T02:05:54;13.03;;;11.10;;
9860;SDS011;4969;52.304;4.968;2022-11-20T02:08:26;13.53;;;10.77;;
9860;SDS011;4969;52.304;4.968;2022-11-20T02:10:54;11.67;;;10.53;;
9860;SDS011;4969;52.304;4.968;2022-11-20T02:13:20;18.03;;;10.57;;
9860;SDS011;4969;52.304;4.968;2022-11-20T02:16:05;15.77;;;9.30;;
9860;SDS011;4969;52.304;4.968;2022-11-20T02:18:34;16.53;;;10.00;;
9860;SDS011;4969;52.304;4.968;2022-11-20T02:21:06;12.83;;;11.00;;
9860;SDS011;4969;52.304;4.968;2022-11-20T02:23:38;12.20;;;10.47;;
9860;SDS011;4969;52.304;4.968;2022-11-20T02:26:11;16.13;;;11.07;;
9860;SDS011;4969;52.304;4.968;2022-11-20T02:28:41;11.30;;;10.10;;
9860;SDS011;4969;52.304;4.968;2022-11-20T02:31:08;10.53;;;9.47;;
9860;SDS011;4969;52.304;4.968;2022-11-20T02:33:34;12.07;;;8.53;;
9860;SDS011;4969;52.304;4.968;2022-11-20T02:36:01;19.97;;;9.50;;
9860;SDS011;4969;52.304;4.968;2022-11-20T02:38:28;17.27;;;9.17;;
9860;SDS011;4969;52.304;4.968;2022-11-20T02:40:54;10.27;;;9.27;;
9860;SDS011;4969;52.304;4.968;2022-11-20T02:43:22;11.87;;;9.90;;
9860;SDS011;4969;52.304;4.968;2022-11-20T02:45:49;18.90;;;9.40;;
9860;SDS011;4969;52.304;4.968;2022-11-20T02:48:16;14.40;;;11.10;;
9860;SDS011;4969;52.304;4.968;2022-11-20T02:50:42;15.87;;;11.00;;
9860;SDS011;4969;52.304;4.968;2022-11-20T02:53:09;14.03;;;10.20;;
9860;SDS011;4969;52.304;4.968;2022-11-20T02:55:35;11.23;;;10.23;;
9860;SDS011;4969;52.304;4.968;2022-11-20T02:58:02;10.97;;;9.97;;
9860;SDS011;4969;52.304;4.968;2022-11-20T03:00:30;14.47;;;9.80;;
9860;SDS011;4969;52.304;4.968;2022-11-20T03:02:57;12.20;;;9.37;;
9860;SDS011;4969;52.304;4.968;2022-11-20T03:05:23;10.57;;;9.40;;
9860;SDS011;4969;52.304;4.968;2022-11-20T03:07:50;10.00;;;8.87;;
9860;SDS011;4969;52.304;4.968;2022-11-20T03:10:16;13.77;;;10.43;;
9860;SDS011;4969;52.304;4.968;2022-11-20T03:12:43;17.40;;;10.67;;
9860;SDS011;4969;52.304;4.968;2022-11-20T03:15:10;13.30;;;10.77;;
9860;SDS011;4969;52.304;4.968;2022-11-20T03:17:38;11.73;;;9.67;;
9860;SDS011;4969;52.304;4.968;2022-11-20T03:20:05;14.17;;;9.53;;
9860;SDS011;4969;52.304;4.968;2022-11-20T03:22:34;13.97;;;9.47;;
9860;SDS011;4969;52.304;4.968;2022-11-20T03:25:00;11.17;;;9.37;;
9860;SDS011;4969;52.304;4.968;2022-11-20T03:27:27;12.47;;;10.67;;
9860;SDS011;4969;52.304;4.968;2022-11-20T03:29:58;12.47;;;10.27;;
9860;SDS011;4969;52.304;4.968;2022-11-20T03:32:25;10.47;;;9.47;;
9860;SDS011;4969;52.304;4.968;2022-11-20T03:34:53;10.83;;;9.60;;
9860;SDS011;4969;52.304;4.968;2022-11-20T03:37:19;20.10;;;10.40;;
9860;SDS011;4969;52.304;4.968;2022-11-20T03:39:46;16.67;;;10.70;;
9860;SDS011;4969;52.304;4.968;2022-11-20T03:42:13;18.03;;;10.20;;
9860;SDS011;4969;52.304;4.968;2022-11-20T03:44:53;12.47;;;10.43;;
9860;SDS011;4969;52.304;4.968;2022-11-20T03:47:20;15.10;;;10.97;;
9860;SDS011;4969;52.304;4.968;2022-11-20T03:49:46;12.20;;;10.90;;
9860;SDS011;4969;52.304;4.968;2022-11-20T03:52:14;17.57;;;11.00;;
9860;SDS011;4969;52.304;4.968;2022-11-20T03:54:41;14.57;;;10.77;;
9860;SDS011;4969;52.304;4.968;2022-11-20T03:57:07;11.50;;;9.73;;
9860;SDS011;4969;52.304;4.968;2022-11-20T03:59:34;13.43;;;9.90;;
9860;SDS011;4969;52.304;4.968;2022-11-20T04:02:00;14.57;;;10.17;;
9860;SDS011;4969;52.304;4.968;2022-11-20T04:04:27;24.20;;;10.40;;
9860;SDS011;4969;52.304;4.968;2022-11-20T04:06:54;14.03;;;10.07;;
9860;SDS011;4969;52.304;4.968;2022-11-20T04:09:22;12.50;;;10.63;;
9860;SDS011;4969;52.304;4.968;2022-11-20T04:11:48;10.87;;;9.83;;
9860;SDS011;4969;52.304;4.968;2022-11-20T04:14:15;14.57;;;10.53;;
9860;SDS011;4969;52.304;4.968;2022-11-20T04:16:42;13.17;;;10.30;;
9860;SDS011;4969;52.304;4.968;2022-11-20T04:19:10;10.73;;;9.63;;
9860;SDS011;4969;52.304;4.968;2022-11-20T04:21:38;11.00;;;9.80;;
9860;SDS011;4969;52.304;4.968;2022-11-20T04:24:06;12.13;;;10.63;;
9860;SDS011;4969;52.304;4.968;2022-11-20T04:26:34;10.60;;;9.57;;
9860;SDS011;4969;52.304;4.968;2022-11-20T04:29:01;10.83;;;9.77;;
9860;SDS011;4969;52.304;4.968;2022-11-20T04:31:29;12.30;;;9.83;;
9860;SDS011;4969;52.304;4.968;2022-11-20T04:33:58;11.60;;;9.23;;
9860;SDS011;4969;52.304;4.968;2022-11-20T04:36:27;17.27;;;9.53;;
9860;SDS011;4969;52.304;4.968;2022-11-20T04:38:54;10.77;;;9.63;;
9860;SDS011;4969;52.304;4.968;2022-11-20T04:41:22;16.93;;;9.97;;
9860;SDS011;4969;52.304;4.968;2022-11-20T04:43:52;11.63;;;10.33;;
9860;SDS011;4969;52.304;4.968;2022-11-20T04:46:24;10.73;;;9.63;;
9860;SDS011;4969;52.304;4.968;2022-11-20T04:48:51;34.20;;;9.90;;
9860;SDS011;4969;52.304;4.968;2022-11-20T04:51:18;12.23;;;10.10;;
9860;SDS011;4969;52.304;4.968;2022-11-20T04:53:44;15.10;;;9.37;;
9860;SDS011;4969;52.304;4.968;2022-11-20T04:56:12;10.70;;;9.70;;
9860;SDS011;4969;52.304;4.968;2022-11-20T04:58:40;10.60;;;9.60;;
9860;SDS011;4969;52.304;4.968;2022-11-20T05:01:09;10.00;;;9.00;;
9860;SDS011;4969;52.304;4.968;2022-11-20T05:03:37;10.50;;;9.50;;
9860;SDS011;4969;52.304;4.968;2022-11-20T05:06:04;10.13;;;9.13;;
9860;SDS011;4969;52.304;4.968;2022-11-20T05:08:32;12.77;;;9.73;;
9860;SDS011;4969;52.304;4.968;2022-11-20T05:10:59;14.23;;;9.40;;
9860;SDS011;4969;52.304;4.968;2022-11-20T05:13:27;14.23;;;9.83;;
9860;SDS011;4969;52.304;4.968;2022-11-20T05:15:53;10.47;;;9.47;;
9860;SDS011;4969;52.304;4.968;2022-11-20T05:18:21;9.97;;;9.07;;
9860;SDS011;4969;52.304;4.968;2022-11-20T05:20:54;14.53;;;9.13;;
9860;SDS011;4969;52.304;4.968;2022-11-20T05:23:21;11.10;;;9.33;;
9860;SDS011;4969;52.304;4.968;2022-11-20T05:25:48;17.00;;;10.00;;
9860;SDS011;4969;52.304;4.968;2022-11-20T05:28:17;14.80;;;9.47;;
9860;SDS011;4969;52.304;4.968;2022-11-20T05:30:44;12.30;;;10.17;;
9860;SDS011;4969;52.304;4.968;2022-11-20T05:33:10;18.10;;;10.03;;
9860;SDS011;4969;52.304;4.968;2022-11-20T05:35:38;11.83;;;10.27;;
9860;SDS011;4969;52.304;4.968;2022-11-20T05:38:05;11.07;;;10.07;;
9860;SDS011;4969;52.304;4.968;2022-11-20T05:40:31;10.90;;;9.97;;
9860;SDS011;4969;52.304;4.968;2022-11-20T05:42:58;11.77;;;10.67;;
9860;SDS011;4969;52.304;4.968;2022-11-20T05:45:25;12.03;;;10.83;;
9860;SDS011;4969;52.304;4.968;2022-11-20T05:47:52;12.03;;;10.87;;
9860;SDS011;4969;52.304;4.968;2022-11-20T05:50:19;10.70;;;9.77;;
9860;SDS011;4969;52.304;4.968;2022-11-20T05:52:47;12.07;;;10.87;;
9860;SDS011;4969;52.304;4.968;2022-11-20T05:55:13;11.33;;;10.30;;
9860;SDS011;4969;52.304;4.968;2022-11-20T05:57:40;11.97;;;10.87;;
9860;SDS011;4969;52.304;4.968;2022-11-20T06:00:07;11.60;;;10.50;;
9860;SDS011;4969;52.304;4.968;2022-11-20T06:02:34;11.73;;;10.67;;
9860;SDS011;4969;52.304;4.968;2022-11-20T06:05:01;12.33;;;11.23;;
9860;SDS011;4969;52.304;4.968;2022-11-20T06:07:28;11.63;;;10.57;;
9860;SDS011;4969;52.304;4.968;2022-11-20T06:09:56;12.27;;;11.07;;
9860;SDS011;4969;52.304;4.968;2022-11-20T06:12:23;12.33;;;11.03;;
9860;SDS011;4969;52.304;4.968;2022-11-20T06:14:49;11.93;;;10.83;;
9860;SDS011;4969;52.304;4.968;2022-11-20T06:17:16;12.50;;;11.40;;
9860;SDS011;4969;52.304;4.968;2022-11-20T06:19:43;12.37;;;11.17;;
9860;SDS011;4969;52.304;4.968;2022-11-20T06:22:09;11.93;;;10.80;;
9860;SDS011;4969;52.304;4.968;2022-11-20T06:24:36;11.53;;;10.53;;
9860;SDS011;4969;52.304;4.968;2022-11-20T06:27:04;12.03;;;10.83;;
9860;SDS011;4969;52.304;4.968;2022-11-20T06:29:31;12.37;;;11.17;;
9860;SDS011;4969;52.304;4.968;2022-11-20T06:31:57;11.57;;;10.57;;
9860;SDS011;4969;52.304;4.968;2022-11-20T06:34:24;12.03;;;10.83;;
9860;SDS011;4969;52.304;4.968;2022-11-20T06:36:50;12.40;;;11.20;;
9860;SDS011;4969;52.304;4.968;2022-11-20T06:39:17;12.00;;;10.90;;
9860;SDS011;4969;52.304;4.968;2022-11-20T06:41:44;11.90;;;10.80;;
9860;SDS011;4969;52.304;4.968;2022-11-20T06:44:12;11.10;;;10.03;;
9860;SDS011;4969;52.304;4.968;2022-11-20T06:46:38;12.23;;;11.13;;
9860;SDS011;4969;52.304;4.968;2022-11-20T06:49:05;11.97;;;10.77;;
9860;SDS011;4969;52.304;4.968;2022-11-20T06:51:31;12.07;;;10.97;;
9860;SDS011;4969;52.304;4.968;2022-11-20T06:53:58;12.97;;;11.77;;
9860;SDS011;4969;52.304;4.968;2022-11-20T06:56:26;12.50;;;11.30;;
9860;SDS011;4969;52.304;4.968;2022-11-20T06:58:52;12.07;;;10.87;;
9860;SDS011;4969;52.304;4.968;2022-11-20T07:01:20;13.20;;;11.90;;
9860;SDS011;4969;52.304;4.968;2022-11-20T07:03:48;13.03;;;11.27;;
9860;SDS011;4969;52.304;4.968;2022-11-20T07:06:16;12.77;;;11.63;;
9860;SDS011;4969;52.304;4.968;2022-11-20T07:08:43;12.50;;;11.27;;
9860;SDS011;4969;52.304;4.968;2022-11-20T07:11:11;13.07;;;11.87;;
9860;SDS011;4969;52.304;4.968;2022-11-20T07:13:38;15.37;;;11.63;;
9860;SDS011;4969;52.304;4.968;2022-11-20T07:16:06;13.13;;;11.83;;
9860;SDS011;4969;52.304;4.968;2022-11-20T07:18:35;13.00;;;11.80;;
9860;SDS011;4969;52.304;4.968;2022-11-20T07:21:02;13.80;;;12.50;;
9860;SDS011;4969;52.304;4.968;2022-11-20T07:23:30;13.37;;;11.97;;
9860;SDS011;4969;52.304;4.968;2022-11-20T07:25:57;13.33;;;12.13;;
9860;SDS011;4969;52.304;4.968;2022-11-20T07:28:24;14.03;;;12.67;;
9860;SDS011;4969;52.304;4.968;2022-11-20T07:30:50;13.33;;;11.93;;
9860;SDS011;4969;52.304;4.968;2022-11-20T07:33:17;13.43;;;12.23;;
9860;SDS011;4969;52.304;4.968;2022-11-20T07:35:46;13.40;;;12.20;;
9860;SDS011;4969;52.304;4.968;2022-11-20T07:38:12;13.47;;;12.27;;
9860;SDS011;4969;52.304;4.968;2022-11-20T07:40:39;13.30;;;12.10;;
9860;SDS011;4969;52.304;4.968;2022-11-20T07:43:06;14.63;;;12.70;;
9860;SDS011;4969;52.304;4.968;2022-11-20T07:45:32;14.13;;;12.63;;
9860;SDS011;4969;52.304;4.968;2022-11-20T07:47:59;14.57;;;13.17;;
9860;SDS011;4969;52.304;4.968;2022-11-20T07:50:26;14.03;;;12.63;;
9860;SDS011;4969;52.304;4.968;2022-11-20T07:53:00;15.07;;;13.57;;
9860;SDS011;4969;52.304;4.968;2022-11-20T07:55:28;14.20;;;12.80;;
9860;SDS011;4969;52.304;4.968;2022-11-20T07:57:55;13.90;;;12.60;;
9860;SDS011;4969;52.304;4.968;2022-11-20T08:00:22;14.00;;;12.60;;
9860;SDS011;4969;52.304;4.968;2022-11-20T08:02:49;14.60;;;13.20;;
9860;SDS011;4969;52.304;4.968;2022-11-20T08:05:16;14.20;;;12.90;;
9860;SDS011;4969;52.304;4.968;2022-11-20T08:07:43;13.80;;;12.40;;
9860;SDS011;4969;52.304;4.968;2022-11-20T08:10:12;14.03;;;12.73;;
9860;SDS011;4969;52.304;4.968;2022-11-20T08:12:43;14.30;;;13.00;;
9860;SDS011;4969;52.304;4.968;2022-11-20T08:15:28;14.20;;;12.90;;
9860;SDS011;4969;52.304;4.968;2022-11-20T08:17:58;11.60;;;10.20;;
9860;SDS011;4969;52.304;4.968;2022-11-20T08:20:26;11.37;;;10.27;;
9860;SDS011;4969;52.304;4.968;2022-11-20T08:22:52;13.63;;;12.23;;
9860;SDS011;4969;52.304;4.968;2022-11-20T08:25:24;12.87;;;11.67;;
9860;SDS011;4969;52.304;4.968;2022-11-20T08:27:51;12.40;;;10.97;;
9860;SDS011;4969;52.304;4.968;2022-11-20T08:30:17;16.13;;;11.80;;
9860;SDS011;4969;52.304;4.968;2022-11-20T08:32:44;14.00;;;12.70;;
9860;SDS011;4969;52.304;4.968;2022-11-20T08:35:11;14.73;;;13.27;;
9860;SDS011;4969;52.304;4.968;2022-11-20T08:37:37;14.43;;;12.37;;
9860;SDS011;4969;52.304;4.968;2022-11-20T08:40:07;13.90;;;12.43;;
9860;SDS011;4969;52.304;4.968;2022-11-20T08:42:36;14.77;;;13.27;;
9860;SDS011;4969;52.304;4.968;2022-11-20T08:45:03;15.27;;;13.37;;
9860;SDS011;4969;52.304;4.968;2022-11-20T08:47:30;13.57;;;12.27;;
9860;SDS011;4969;52.304;4.968;2022-11-20T08:49:57;13.93;;;12.63;;
9860;SDS011;4969;52.304;4.968;2022-11-20T08:52:23;14.83;;;13.43;;
9860;SDS011;4969;52.304;4.968;2022-11-20T08:54:50;13.97;;;12.63;;
9860;SDS011;4969;52.304;4.968;2022-11-20T08:57:17;14.03;;;12.63;;
9860;SDS011;4969;52.304;4.968;2022-11-20T08:59:44;14.57;;;13.17;;
9860;SDS011;4969;52.304;4.968;2022-11-20T09:02:11;14.03;;;12.73;;
9860;SDS011;4969;52.304;4.968;2022-11-20T09:04:38;14.60;;;13.20;;
9860;SDS011;4969;52.304;4.968;2022-11-20T09:07:04;13.43;;;12.13;;
9860;SDS011;4969;52.304;4.968;2022-11-20T09:09:31;13.80;;;12.50;;
9860;SDS011;4969;52.304;4.968;2022-11-20T09:11:58;13.17;;;11.77;;
9860;SDS011;4969;52.304;4.968;2022-11-20T09:14:25;14.10;;;12.80;;
9860;SDS011;4969;52.304;4.968;2022-11-20T09:16:55;13.17;;;11.80;;
9860;SDS011;4969;52.304;4.968;2022-11-20T09:19:23;15.30;;;13.27;;
9860;SDS011;4969;52.304;4.968;2022-11-20T09:21:49;15.23;;;13.73;;
9860;SDS011;4969;52.304;4.968;2022-11-20T09:24:16;13.93;;;12.63;;
9860;SDS011;4969;52.304;4.968;2022-11-20T09:26:43;13.67;;;12.37;;
9860;SDS011;4969;52.304;4.968;2022-11-20T09:29:09;15.20;;;13.63;;
9860;SDS011;4969;52.304;4.968;2022-11-20T09:31:36;14.57;;;13.27;;
9860;SDS011;4969;52.304;4.968;2022-11-20T09:34:04;15.67;;;13.93;;
9860;SDS011;4969;52.304;4.968;2022-11-20T09:36:30;15.27;;;13.87;;
9860;SDS011;4969;52.304;4.968;2022-11-20T09:39:00;14.97;;;13.57;;
9860;SDS011;4969;52.304;4.968;2022-11-20T09:41:31;11.43;;;10.33;;
9860;SDS011;4969;52.304;4.968;2022-11-20T09:44:13;14.73;;;12.40;;
9860;SDS011;4969;52.304;4.968;2022-11-20T09:46:53;12.53;;;11.33;;
9860;SDS011;4969;52.304;4.968;2022-11-20T09:49:31;14.80;;;13.40;;
9860;SDS011;4969;52.304;4.968;2022-11-20T09:52:12;13.00;;;11.90;;
9860;SDS011;4969;52.304;4.968;2022-11-20T09:54:46;14.87;;;13.47;;
9860;SDS011;4969;52.304;4.968;2022-11-20T09:57:14;13.97;;;12.27;;
9860;SDS011;4969;52.304;4.968;2022-11-20T09:59:45;15.23;;;13.07;;
9860;SDS011;4969;52.304;4.968;2022-11-20T10:02:17;15.83;;;14.30;;
9860;SDS011;4969;52.304;4.968;2022-11-20T10:04:55;15.40;;;13.97;;
9860;SDS011;4969;52.304;4.968;2022-11-20T10:07:27;15.70;;;14.20;;
9860;SDS011;4969;52.304;4.968;2022-11-20T10:09:58;17.07;;;14.90;;
9860;SDS011;4969;52.304;4.968;2022-11-20T10:12:27;15.07;;;13.57;;
9860;SDS011;4969;52.304;4.968;2022-11-20T10:15:10;15.30;;;13.90;;
9860;SDS011;4969;52.304;4.968;2022-11-20T10:20:43;15.00;;;13.60;;
9860;SDS011;4969;52.304;4.968;2022-11-20T10:26:14;16.67;;;14.97;;
9860;SDS011;4969;52.304;4.968;2022-11-20T10:28:48;16.03;;;14.40;;
9860;SDS011;4969;52.304;4.968;2022-11-20T10:31:28;21.13;;;16.07;;
9860;SDS011;4969;52.304;4.968;2022-11-20T10:34:00;16.67;;;14.77;;
9860;SDS011;4969;52.304;4.968;2022-11-20T10:36:34;23.97;;;17.10;;
9860;SDS011;4969;52.304;4.968;2022-11-20T10:39:05;17.13;;;15.43;;
9860;SDS011;4969;52.304;4.968;2022-11-20T10:41:39;46.70;;;20.70;;
9860;SDS011;4969;52.304;4.968;2022-11-20T10:44:09;26.37;;;17.10;;
9860;SDS011;4969;52.304;4.968;2022-11-20T10:46:39;21.30;;;16.67;;
9860;SDS011;4969;52.304;4.968;2022-11-20T10:49:11;21.03;;;16.20;;
9860;SDS011;4969;52.304;4.968;2022-11-20T10:51:43;16.27;;;14.53;;
9860;SDS011;4969;52.304;4.968;2022-11-20T10:54:19;18.90;;;15.90;;
9860;SDS011;4969;52.304;4.968;2022-11-20T10:56:53;18.23;;;16.17;;
9860;SDS011;4969;52.304;4.968;2022-11-20T11:02:32;17.57;;;15.70;;
9860;SDS011;4969;52.304;4.968;2022-11-20T11:05:04;22.90;;;16.57;;
9860;SDS011;4969;52.304;4.968;2022-11-20T11:07:40;18.93;;;16.07;;
9860;SDS011;4969;52.304;4.968;2022-11-20T11:10:13;19.63;;;17.47;;
9860;SDS011;4969;52.304;4.968;2022-11-20T11:12:43;19.33;;;17.20;;
9860;SDS011;4969;52.304;4.968;2022-11-20T11:15:11;18.10;;;16.23;;
9860;SDS011;4969;52.304;4.968;2022-11-20T11:17:45;18.50;;;16.63;;
9860;SDS011;4969;52.304;4.968;2022-11-20T11:20:17;18.57;;;16.60;;
9860;SDS011;4969;52.304;4.968;2022-11-20T11:22:47;19.70;;;17.33;;
9860;SDS011;4969;52.304;4.968;2022-11-20T11:25:23;19.30;;;17.23;;
9860;SDS011;4969;52.304;4.968;2022-11-20T11:27:55;18.80;;;17.00;;
9860;SDS011;4969;52.304;4.968;2022-11-20T11:30:24;19.87;;;17.77;;
9860;SDS011;4969;52.304;4.968;2022-11-20T11:33:01;19.27;;;17.10;;
9860;SDS011;4969;52.304;4.968;2022-11-20T11:35:29;20.23;;;18.13;;
9860;SDS011;4969;52.304;4.968;2022-11-20T11:38:03;19.33;;;17.33;;
9860;SDS011;4969;52.304;4.968;2022-11-20T11:40:32;24.40;;;19.83;;
9860;SDS011;4969;52.304;4.968;2022-11-20T11:43:02;21.40;;;19.10;;
9860;SDS011;4969;52.304;4.968;2022-11-20T11:45:52;25.10;;;20.50;;
9860;SDS011;4969;52.304;4.968;2022-11-20T11:48:19;22.43;;;20.03;;
9860;SDS011;4969;52.304;4.968;2022-11-20T11:50:47;21.97;;;19.30;;
9860;SDS011;4969;52.304;4.968;2022-11-20T11:53:17;22.03;;;19.73;;
9860;SDS011;4969;52.304;4.968;2022-11-20T11:55:46;21.27;;;19.13;;
9860;SDS011;4969;52.304;4.968;2022-11-20T11:58:17;21.77;;;19.47;;
9860;SDS011;4969;52.304;4.968;2022-11-20T12:00:57;24.73;;;19.80;;
9860;SDS011;4969;52.304;4.968;2022-11-20T12:03:28;22.87;;;20.47;;
9860;SDS011;4969;52.304;4.968;2022-11-20T12:06:02;21.87;;;19.30;;
9860;SDS011;4969;52.304;4.968;2022-11-20T12:08:39;21.10;;;18.83;;
9860;SDS011;4969;52.304;4.968;2022-11-20T12:11:11;20.90;;;18.67;;
9860;SDS011;4969;52.304;4.968;2022-11-20T12:13:44;30.90;;;21.17;;
9860;SDS011;4969;52.304;4.968;2022-11-20T12:16:17;21.37;;;19.17;;
9860;SDS011;4969;52.304;4.968;2022-11-20T12:18:45;22.70;;;20.20;;
9860;SDS011;4969;52.304;4.968;2022-11-20T12:21:22;24.33;;;21.33;;
9860;SDS011;4969;52.304;4.968;2022-11-20T12:24:02;25.53;;;21.10;;
9860;SDS011;4969;52.304;4.968;2022-11-20T12:26:44;25.10;;;20.30;;
9860;SDS011;4969;52.304;4.968;2022-11-20T12:29:21;23.93;;;21.33;;
9860;SDS011;4969;52.304;4.968;2022-11-20T12:32:10;25.93;;;23.13;;
9860;SDS011;4969;52.304;4.968;2022-11-20T12:35:03;23.70;;;20.87;;
9860;SDS011;4969;52.304;4.968;2022-11-20T12:37:44;25.23;;;22.37;;
9860;SDS011;4969;52.304;4.968;2022-11-20T12:40:20;25.43;;;21.70;;
9860;SDS011;4969;52.304;4.968;2022-11-20T12:43:00;25.17;;;20.67;;
9860;SDS011;4969;52.304;4.968;2022-11-20T12:48:51;26.90;;;21.77;;
9860;SDS011;4969;52.304;4.968;2022-11-20T12:51:40;29.77;;;22.57;;
9860;SDS011;4969;52.304;4.968;2022-11-20T12:54:42;28.30;;;23.07;;
9860;SDS011;4969;52.304;4.968;2022-11-20T12:57:21;30.63;;;24.73;;
9860;SDS011;4969;52.304;4.968;2022-11-20T13:00:01;29.70;;;24.07;;
9860;SDS011;4969;52.304;4.968;2022-11-20T13:02:44;26.57;;;21.53;;
9860;SDS011;4969;52.304;4.968;2022-11-20T13:05:27;29.87;;;23.50;;
9860;SDS011;4969;52.304;4.968;2022-11-20T13:08:02;28.30;;;22.40;;
9860;SDS011;4969;52.304;4.968;2022-11-20T13:10:31;27.27;;;22.13;;
9860;SDS011;4969;52.304;4.968;2022-11-20T13:13:04;27.33;;;23.17;;
9860;SDS011;4969;52.304;4.968;2022-11-20T13:15:43;25.97;;;23.17;;
9860;SDS011;4969;52.304;4.968;2022-11-20T13:18:14;25.47;;;22.87;;
9860;SDS011;4969;52.304;4.968;2022-11-20T13:20:42;27.10;;;24.30;;
9860;SDS011;4969;52.304;4.968;2022-11-20T13:23:10;27.13;;;23.33;;
9860;SDS011;4969;52.304;4.968;2022-11-20T13:25:37;30.67;;;22.37;;
9860;SDS011;4969;52.304;4.968;2022-11-20T13:30:55;25.30;;;20.93;;
9860;SDS011;4969;52.304;4.968;2022-11-20T13:33:23;25.17;;;22.43;;
9860;SDS011;4969;52.304;4.968;2022-11-20T13:35:55;26.63;;;21.43;;
9860;SDS011;4969;52.304;4.968;2022-11-20T13:38:23;24.93;;;22.30;;
9860;SDS011;4969;52.304;4.968;2022-11-20T13:40:53;24.40;;;21.90;;
9860;SDS011;4969;52.304;4.968;2022-11-20T13:43:22;24.43;;;21.90;;
9860;SDS011;4969;52.304;4.968;2022-11-20T13:45:56;25.33;;;22.63;;
9860;SDS011;4969;52.304;4.968;2022-11-20T13:48:25;24.97;;;21.20;;
9860;SDS011;4969;52.304;4.968;2022-11-20T13:50:57;23.77;;;21.33;;
9860;SDS011;4969;52.304;4.968;2022-11-20T13:53:43;28.67;;;21.43;;
9860;SDS011;4969;52.304;4.968;2022-11-20T13:56:21;23.47;;;20.97;;
9860;SDS011;4969;52.304;4.968;2022-11-20T13:58:58;23.73;;;20.97;;
9860;SDS011;4969;52.304;4.968;2022-11-20T14:01:29;24.03;;;21.43;;
9860;SDS011;4969;52.304;4.968;2022-11-20T14:03:57;24.90;;;22.20;;
9860;SDS011;4969;52.304;4.968;2022-11-20T14:06:25;23.93;;;21.30;;
9860;SDS011;4969;52.304;4.968;2022-11-20T14:08:53;23.23;;;20.43;;
9860;SDS011;4969;52.304;4.968;2022-11-20T14:11:20;27.00;;;20.40;;
9860;SDS011;4969;52.304;4.968;2022-11-20T14:13:56;24.07;;;21.47;;
9860;SDS011;4969;52.304;4.968;2022-11-20T14:16:26;26.27;;;20.23;;
9860;SDS011;4969;52.304;4.968;2022-11-20T14:18:54;25.00;;;20.97;;
9860;SDS011;4969;52.304;4.968;2022-11-20T14:21:23;23.17;;;20.50;;
9860;SDS011;4969;52.304;4.968;2022-11-20T14:23:52;23.53;;;21.13;;
9860;SDS011;4969;52.304;4.968;2022-11-20T14:26:19;24.03;;;20.50;;
9860;SDS011;4969;52.304;4.968;2022-11-20T14:28:47;24.33;;;21.73;;
9860;SDS011;4969;52.304;4.968;2022-11-20T14:31:20;23.80;;;20.63;;
9860;SDS011;4969;52.304;4.968;2022-11-20T14:33:49;24.67;;;21.83;;
9860;SDS011;4969;52.304;4.968;2022-11-20T14:36:17;24.50;;;21.87;;
9860;SDS011;4969;52.304;4.968;2022-11-20T14:38:45;26.27;;;21.97;;
9860;SDS011;4969;52.304;4.968;2022-11-20T14:41:16;24.83;;;21.63;;
9860;SDS011;4969;52.304;4.968;2022-11-20T14:43:45;23.80;;;21.23;;
9860;SDS011;4969;52.304;4.968;2022-11-20T14:46:13;25.77;;;22.40;;
9860;SDS011;4969;52.304;4.968;2022-11-20T14:48:43;24.67;;;22.07;;
9860;SDS011;4969;52.304;4.968;2022-11-20T14:51:22;26.87;;;23.40;;
9860;SDS011;4969;52.304;4.968;2022-11-20T14:53:52;27.77;;;23.40;;
9860;SDS011;4969;52.304;4.968;2022-11-20T14:56:20;29.90;;;23.43;;
9860;SDS011;4969;52.304;4.968;2022-11-20T14:58:54;26.23;;;23.13;;
9860;SDS011;4969;52.304;4.968;2022-11-20T15:01:25;25.40;;;22.63;;
9860;SDS011;4969;52.304;4.968;2022-11-20T15:03:58;25.07;;;22.10;;
9860;SDS011;4969;52.304;4.968;2022-11-20T15:06:26;26.37;;;21.60;;
9860;SDS011;4969;52.304;4.968;2022-11-20T15:08:53;27.37;;;22.73;;
9860;SDS011;4969;52.304;4.968;2022-11-20T15:11:21;26.30;;;22.10;;
9860;SDS011;4969;52.304;4.968;2022-11-20T15:13:53;26.70;;;21.40;;
9860;SDS011;4969;52.304;4.968;2022-11-20T15:16:21;23.90;;;20.93;;
9860;SDS011;4969;52.304;4.968;2022-11-20T15:18:49;23.87;;;21.30;;